»·PEaware :: N616SF KSNA-KAVX

N616SF :: KSNA-KAVX

FLIGHT INFORMATION

Flight Status: Arrived
Operator: Privately registered:
United States
More flights under this callsign
Pilot: Hunter C. (16715)
Aircraft: CESSNA 172 SKYHAWK
(C172)
More flights by this aircraft type
Origin: KSNA John Wayne-Orange Co
United States
Destination: KAVX Catalina
United States
More flights between these airports :: More routes between these airports
Route: SLI V21 SXC
File this flight plan on PilotEdge
Remarks:
Altitude:
(Current/Filed)
4,000ft
Speed:
(Current/Filed)
120kts
Departed: 02-Feb-20 09:44 PM
Arrived: 02-Feb-20 10:33 PM
Distance/Time
Traveled:
32nm/0:49
Distance/Time
To Go:
Arrived

Flight Plot

Page will automatically refresh every two minutes.


Map Options




Map Legend


Flown Route
Filed Route
Departure Airport
Arrival Airport
Navaid (VOR, NDB)
Fix

Horizontal Profiles

Position Reports

Time Latitude Longitude Heading Altitude Ground
Speed
02-Feb-20 21:21 33.676205 -117.871104 212 60ft 0kts
02-Feb-20 21:22 33.676205 -117.871104 212 60ft 0kts
02-Feb-20 21:23 33.676205 -117.871104 212 60ft 0kts
02-Feb-20 21:24 33.676205 -117.871104 212 60ft 0kts
02-Feb-20 21:25 33.676205 -117.871104 212 60ft 0kts
02-Feb-20 21:26 33.676205 -117.871104 212 60ft 0kts
02-Feb-20 21:27 33.676205 -117.871104 212 60ft 0kts
02-Feb-20 21:28 33.676205 -117.871104 212 60ft 0kts
02-Feb-20 21:29 33.676205 -117.871104 212 60ft 0kts
02-Feb-20 21:30 33.676205 -117.871104 212 60ft 0kts
02-Feb-20 21:31 33.676205 -117.871104 212 60ft 0kts
02-Feb-20 21:32 33.676205 -117.871104 212 60ft 0kts
02-Feb-20 21:33 33.676205 -117.871104 212 60ft 0kts
02-Feb-20 21:34 33.676205 -117.871104 212 60ft 0kts
02-Feb-20 21:35 33.676205 -117.871104 212 60ft 0kts
02-Feb-20 21:36 33.675985 -117.870110 30 60ft 8kts
02-Feb-20 21:37 33.677044 -117.869443 30 60ft 4kts
02-Feb-20 21:38 33.678101 -117.868799 28 60ft 6kts
02-Feb-20 21:39 33.679568 -117.868010 20 60ft 8kts
02-Feb-20 21:40 33.681133 -117.866970 50 60ft 8kts
02-Feb-20 21:41 33.681245 -117.866488 104 60ft 0kts
02-Feb-20 21:42 33.680536 -117.865739 190 60ft 19kts
02-Feb-20 21:43 33.671305 -117.873721 227 481ft 73kts
02-Feb-20 21:44 33.661461 -117.885746 217 1147ft 80kts
02-Feb-20 21:45 33.650349 -117.898859 217 1849ft 83kts
02-Feb-20 21:46 33.633298 -117.918934 218 2006ft 84kts
02-Feb-20 21:47 33.615244 -117.940785 217 2555ft 94kts
02-Feb-20 21:48 33.604201 -117.953643 218 3160ft 89kts
02-Feb-20 21:49 33.592774 -117.964689 216 3795ft 79kts
02-Feb-20 21:50 33.582367 -117.974381 223 3972ft 109kts
02-Feb-20 21:51 33.574087 -117.986240 238 4139ft 123kts
02-Feb-20 21:52 33.565943 -118.001755 244 4428ft 118kts
02-Feb-20 21:53 33.559912 -118.014351 245 4208ft 119kts
02-Feb-20 21:54 33.553624 -118.027707 245 4124ft 116kts
02-Feb-20 21:55 33.545904 -118.044155 244 4003ft 126kts
02-Feb-20 21:56 33.539464 -118.057836 244 4014ft 137kts
02-Feb-20 21:57 33.532935 -118.071731 244 4002ft 140kts
02-Feb-20 21:58 33.525691 -118.087085 244 4218ft 116kts
02-Feb-20 21:59 33.519442 -118.100418 244 4119ft 119kts
02-Feb-20 22:00 33.513120 -118.113912 244 4014ft 115kts
02-Feb-20 22:01 33.507091 -118.126741 244 3984ft 109kts
02-Feb-20 22:02 33.501240 -118.139179 243 3988ft 105kts
02-Feb-20 22:03 33.495114 -118.151786 235 3993ft 119kts
02-Feb-20 22:04 33.478977 -118.170239 209 4102ft 128kts
02-Feb-20 22:05 33.438403 -118.196292 208 4090ft 129kts
02-Feb-20 22:06 33.413863 -118.213299 230 4035ft 130kts
02-Feb-20 22:07 33.399130 -118.238901 232 4096ft 124kts
02-Feb-20 22:08 33.387992 -118.268700 261 4276ft 126kts
02-Feb-20 22:09 33.379712 -118.306906 258 4189ft 129kts
02-Feb-20 22:10 33.376000 -118.344910 266 3935ft 116kts
02-Feb-20 22:11 33.374512 -118.373456 266 4025ft 88kts
02-Feb-20 22:12 33.373628 -118.399791 268 4058ft 97kts
02-Feb-20 22:13 33.377046 -118.428895 325 4052ft 100kts
02-Feb-20 22:14 33.404310 -118.425263 18 4045ft 94kts
02-Feb-20 22:15 33.422996 -118.415562 24 4053ft 86kts
02-Feb-20 22:16 33.441478 -118.409101 4 4055ft 86kts
02-Feb-20 22:17 33.460936 -118.407699 3 4053ft 86kts
02-Feb-20 22:18 33.482763 -118.404892 8 3721ft 108kts
02-Feb-20 22:19 33.506497 -118.405273 326 3534ft 100kts
02-Feb-20 22:20 33.523783 -118.420836 322 3537ft 92kts
02-Feb-20 22:21 33.545673 -118.418972 86 3245ft 116kts
02-Feb-20 22:22 33.525596 -118.403663 165 3590ft 105kts
02-Feb-20 22:23 33.503492 -118.406587 219 3567ft 112kts
02-Feb-20 22:24 33.481496 -118.410196 158 3585ft 98kts
02-Feb-20 22:25 33.458633 -118.409332 185 3096ft 98kts
02-Feb-20 22:26 33.434968 -118.413572 198 2671ft 98kts
02-Feb-20 22:27 33.410407 -118.415185 182 2262ft 96kts
02-Feb-20 22:28 33.400504 -118.430916 338 2104ft 87kts
02-Feb-20 22:29 33.421229 -118.419386 49 1996ft 106kts
02-Feb-20 22:30 33.423343 -118.394857 148 2311ft 97kts
02-Feb-20 22:31 33.408973 -118.409094 233 1622ft 66kts
02-Feb-20 22:32 33.404792 -118.416110 234 1550ft 5kts
02-Feb-20 22:33 33.403552 -118.418206 234 1558ft 10kts

Navigation Log

Ident Type
Flight plan parsing failed, navigation log unavailable